Time;durP1;ratioP1;P1;durP2;ratioP2;P2;SDS_P1;SDS_P2;PMS_P1;PMS_P2;Temp;Humidity;BMP_temperature;BMP_pressure;BME280_temperature;BME280_humidity;BME280_pressure;Samples;Min_cycle;Max_cycle;Signal;HPM_P1;HPM_P2
2023/01/15 00:01:26;;;;;;;12.73;4.30;;;;;;;;;;5050081;28;20343;-65
2023/01/15 00:03:53;;;;;;;12.65;4.13;;;;;;;;;;5053123;28;20776;-66
2023/01/15 00:06:19;;;;;;;11.38;3.92;;;;;;;;;;5050313;28;20219;-67
2023/01/15 00:08:45;;;;;;;;;;;;;;;;;;5053282;28;20032;-67
2023/01/15 00:11:12;;;;;;;12.80;4.18;;;;;;;;;;5049765;28;20289;-65
2023/01/15 00:13:38;;;;;;;12.52;4.18;;;;;;;;;;5049085;28;20557;-65
2023/01/15 00:16:09;;;;;;;13.02;3.92;;;;;;;;;;5043794;28;20359;-65
2023/01/15 00:18:35;;;;;;;10.82;4.10;;;;;;;;;;5055337;28;20024;-67
2023/01/15 00:21:02;;;;;;;14.68;4.40;;;;;;;;;;5054317;28;20133;-66
2023/01/15 00:29:00;;;;;;;12.75;4.32;;;;;;;;;;5048155;28;20034;-66
2023/01/15 00:31:26;;;;;;;14.30;4.45;;;;;;;;;;5051601;28;20470;-67
2023/01/15 00:33:56;;;;;;;14.90;4.50;;;;;;;;;;5056307;28;20198;-68
2023/01/15 00:36:22;;;;;;;13.55;4.28;;;;;;;;;;5047217;28;20040;-66
2023/01/15 00:38:48;;;;;;;13.20;4.18;;;;;;;;;;5053576;28;20434;-67
2023/01/15 00:41:14;;;;;;;16.25;4.05;;;;;;;;;;5049817;28;20032;-67
2023/01/15 00:43:40;;;;;;;11.57;3.80;;;;;;;;;;5052853;28;20021;-66
2023/01/15 00:46:07;;;;;;;12.75;4.38;;;;;;;;;;5051896;28;20051;-65
2023/01/15 00:48:34;;;;;;;14.38;4.63;;;;;;;;;;5053790;28;20437;-67
2023/01/15 00:51:00;;;;;;;11.80;4.53;;;;;;;;;;5054449;28;20611;-67
2023/01/15 00:53:26;;;;;;;13.55;4.28;;;;;;;;;;5050112;28;20505;-66
2023/01/15 00:55:52;;;;;;;13.63;4.70;;;;;;;;;;5048635;28;20540;-67
2023/01/15 00:58:19;;;;;;;13.60;4.80;;;;;;;;;;5050825;28;20036;-66
2023/01/15 01:00:45;;;;;;;15.82;4.47;;;;;;;;;;5055032;28;20028;-65
2023/01/15 01:03:11;;;;;;;12.55;4.53;;;;;;;;;;5052675;28;20381;-65
2023/01/15 01:05:37;;;;;;;13.55;4.13;;;;;;;;;;5051673;28;20127;-65
2023/01/15 01:08:03;;;;;;;14.95;4.15;;;;;;;;;;5049970;28;20144;-65
2023/01/15 01:10:29;;;;;;;12.98;4.30;;;;;;;;;;5053306;28;20389;-65
2023/01/15 01:12:56;;;;;;;15.07;4.40;;;;;;;;;;5051666;28;20746;-66
2023/01/15 01:15:22;;;;;;;17.25;4.63;;;;;;;;;;5051022;28;20156;-66
2023/01/15 01:17:48;;;;;;;;;;;;;;;;;;5055577;28;20055;-65
2023/01/15 01:20:15;;;;;;;14.60;4.13;;;;;;;;;;5049439;28;20483;-66
2023/01/15 01:22:42;;;;;;;14.02;3.95;;;;;;;;;;5053944;28;20102;-66
2023/01/15 01:25:09;;;;;;;18.40;4.10;;;;;;;;;;5045678;28;20067;-66
2023/01/15 01:27:35;;;;;;;15.32;4.03;;;;;;;;;;5049473;28;20028;-66
2023/01/15 01:30:01;;;;;;;14.45;4.45;;;;;;;;;;5052311;28;20339;-66
2023/01/15 01:32:27;;;;;;;11.40;3.92;;;;;;;;;;5052486;28;20255;-64
2023/01/15 01:34:53;;;;;;;15.90;4.32;;;;;;;;;;5054784;28;20025;-67
2023/01/15 01:37:19;;;;;;;13.32;4.07;;;;;;;;;;5053882;28;20040;-66
2023/01/15 01:39:46;;;;;;;13.50;4.07;;;;;;;;;;5056578;28;20024;-66
2023/01/15 01:42:14;;;;;;;14.52;4.00;;;;;;;;;;5049884;28;20466;-66
2023/01/15 01:44:41;;;;;;;15.52;4.30;;;;;;;;;;5054915;28;20419;-66
2023/01/15 01:47:17;;;;;;;10.90;3.88;;;;;;;;;;5051364;28;20534;-66
2023/01/15 01:49:45;;;;;;;12.23;3.37;;;;;;;;;;5052451;28;20627;-66
2023/01/15 01:52:14;;;;;;;14.07;4.00;;;;;;;;;;5049681;28;20024;-67
2023/01/15 01:54:40;;;;;;;15.77;4.20;;;;;;;;;;5050888;28;20508;-66
2023/01/15 01:57:08;;;;;;;13.38;4.20;;;;;;;;;;5047843;28;20622;-66
2023/01/15 01:59:35;;;;;;;14.73;3.90;;;;;;;;;;5048663;28;20039;-66
2023/01/15 02:02:01;;;;;;;14.18;3.50;;;;;;;;;;5051723;28;20021;-66
2023/01/15 02:04:28;;;;;;;15.77;3.97;;;;;;;;;;5050074;28;20027;-66
2023/01/15 02:06:55;;;;;;;12.70;3.70;;;;;;;;;;5051170;28;20028;-66
2023/01/15 02:09:21;;;;;;;14.20;3.85;;;;;;;;;;5046271;28;20040;-66
2023/01/15 02:11:47;;;;;;;14.45;3.50;;;;;;;;;;5053342;28;20311;-66
2023/01/15 02:14:21;;;;;;;17.15;4.00;;;;;;;;;;5050155;28;20038;-66
2023/01/15 02:16:50;;;;;;;14.93;3.70;;;;;;;;;;5048951;28;20453;-66
2023/01/15 02:19:36;;;;;;;13.45;3.42;;;;;;;;;;5048980;28;20039;-66
2023/01/15 02:22:11;;;;;;;13.55;3.55;;;;;;;;;;5049789;28;20098;-66
2023/01/15 02:24:54;;;;;;;19.73;3.78;;;;;;;;;;5060556;28;20040;-66
2023/01/15 02:27:24;;;;;;;18.67;3.83;;;;;;;;;;5049732;28;20038;-66
2023/01/15 02:30:00;;;;;;;13.85;3.58;;;;;;;;;;5047197;28;20561;-65
2023/01/15 02:32:29;;;;;;;16.70;4.03;;;;;;;;;;5048912;28;20516;-66
2023/01/15 02:34:58;;;;;;;15.98;3.78;;;;;;;;;;5050675;28;20032;-66
2023/01/15 02:37:29;;;;;;;14.80;3.70;;;;;;;;;;5047565;28;20036;-66
2023/01/15 02:39:57;;;;;;;13.90;3.63;;;;;;;;;;5050759;28;20090;-66
2023/01/15 02:42:24;;;;;;;17.92;3.97;;;;;;;;;;5053382;28;20086;-66
2023/01/15 02:44:52;;;;;;;14.27;4.30;;;;;;;;;;5046800;28;20027;-67
2023/01/15 02:47:20;;;;;;;15.20;3.83;;;;;;;;;;5050747;28;20047;-64
2023/01/15 02:49:47;;;;;;;14.95;4.07;;;;;;;;;;5051226;28;20060;-66
2023/01/15 02:52:16;;;;;;;16.52;4.07;;;;;;;;;;5050622;28;20170;-66
2023/01/15 02:54:45;;;;;;;18.08;4.63;;;;;;;;;;5062625;28;20050;-66
2023/01/15 02:57:13;;;;;;;14.63;3.88;;;;;;;;;;5055109;28;20158;-67
2023/01/15 02:59:41;;;;;;;14.65;3.65;;;;;;;;;;5057770;28;20032;-66
2023/01/15 03:02:11;;;;;;;15.27;4.00;;;;;;;;;;5054859;28;20560;-66
2023/01/15 03:04:43;;;;;;;12.95;3.97;;;;;;;;;;5052563;28;21120;-67
2023/01/15 03:07:12;;;;;;;11.70;3.72;;;;;;;;;;5052943;28;20021;-67
2023/01/15 03:09:38;;;;;;;17.77;4.20;;;;;;;;;;5058238;28;20040;-66
2023/01/15 03:12:08;;;;;;;19.60;4.15;;;;;;;;;;5047991;28;20028;-67
2023/01/15 03:14:34;;;;;;;13.40;3.72;;;;;;;;;;5055906;28;20035;-67
2023/01/15 03:17:05;;;;;;;17.15;4.35;;;;;;;;;;5058149;28;20031;-66
2023/01/15 03:19:31;;;;;;;15.60;4.38;;;;;;;;;;5056592;28;20300;-66
2023/01/15 03:22:09;;;;;;;17.58;4.15;;;;;;;;;;5058001;28;20070;-66
2023/01/15 03:24:47;;;;;;;18.63;4.15;;;;;;;;;;5055950;28;20028;-66
2023/01/15 03:27:14;;;;;;;16.20;4.65;;;;;;;;;;5049496;28;20016;-66
2023/01/15 03:29:45;;;;;;;17.20;4.97;;;;;;;;;;5053686;28;20470;-66
2023/01/15 03:32:11;;;;;;;18.40;4.47;;;;;;;;;;5051062;28;20024;-66
2023/01/15 03:34:41;;;;;;;19.95;5.10;;;;;;;;;;5053443;28;20478;-66
2023/01/15 03:37:08;;;;;;;19.65;5.45;;;;;;;;;;5054485;28;20284;-66
2023/01/15 03:39:33;;;;;;;;;;;;;;;;;;5058761;28;20028;-66
2023/01/15 03:42:00;;;;;;;19.42;5.03;;;;;;;;;;5054362;28;20151;-69
2023/01/15 03:44:50;;;;;;;18.92;5.03;;;;;;;;;;5053088;28;20033;-66
2023/01/15 03:47:33;;;;;;;15.93;4.97;;;;;;;;;;5051008;28;20060;-68
2023/01/15 03:50:03;;;;;;;18.75;5.10;;;;;;;;;;5057803;28;20559;-68
2023/01/15 03:52:29;;;;;;;21.20;6.00;;;;;;;;;;5055244;28;20032;-65
2023/01/15 03:54:56;;;;;;;22.55;5.88;;;;;;;;;;5055585;28;20053;-65
2023/01/15 03:57:25;;;;;;;22.08;5.40;;;;;;;;;;5052510;28;20444;-66
2023/01/15 03:59:54;;;;;;;18.58;5.50;;;;;;;;;;5055861;28;20374;-65
2023/01/15 04:02:21;;;;;;;26.38;6.68;;;;;;;;;;5050446;28;20044;-65
2023/01/15 04:04:49;;;;;;;23.40;5.93;;;;;;;;;;5054004;28;20024;-66
2023/01/15 04:07:15;;;;;;;21.45;5.88;;;;;;;;;;5049554;28;20414;-66
2023/01/15 04:09:41;;;;;;;;;;;;;;;;;;5056534;28;20294;-65
2023/01/15 04:12:07;;;;;;;27.00;6.30;;;;;;;;;;5053120;28;20273;-66
2023/01/15 04:14:34;;;;;;;23.15;6.25;;;;;;;;;;5052947;28;20089;-65
2023/01/15 04:17:00;;;;;;;;;;;;;;;;;;5055479;28;20314;-65
2023/01/15 04:19:26;;;;;;;30.80;7.18;;;;;;;;;;5050885;28;19999;-64
2023/01/15 04:21:52;;;;;;;21.13;6.03;;;;;;;;;;5054438;28;20032;-65
2023/01/15 04:24:18;;;;;;;26.50;5.90;;;;;;;;;;5050230;28;20028;-64
2023/01/15 04:26:44;;;;;;;25.67;5.93;;;;;;;;;;5056085;28;20038;-65
2023/01/15 04:29:10;;;;;;;19.08;5.65;;;;;;;;;;5050782;28;20024;-65
2023/01/15 04:31:37;;;;;;;21.52;5.82;;;;;;;;;;5054686;28;20075;-65
2023/01/15 04:34:03;;;;;;;18.30;5.25;;;;;;;;;;5050468;28;20032;-67
2023/01/15 04:36:29;;;;;;;;;;;;;;;;;;5053514;28;22710;-65
2023/01/15 04:38:56;;;;;;;19.50;5.65;;;;;;;;;;5052473;28;20453;-64
2023/01/15 04:44:07;;;;;;;18.73;5.28;;;;;;;;;;5049405;28;20361;-66
2023/01/15 04:46:35;;;;;;;16.42;4.75;;;;;;;;;;5050513;28;20028;-64
2023/01/15 04:49:02;;;;;;;23.13;4.70;;;;;;;;;;5052314;28;20430;-65
2023/01/15 04:51:28;;;;;;;20.83;5.25;;;;;;;;;;5054962;28;20474;-65
2023/01/15 04:53:54;;;;;;;26.27;5.50;;;;;;;;;;5053754;28;20045;-62
2023/01/15 04:56:20;;;;;;;17.15;5.03;;;;;;;;;;5046505;28;20141;-63
2023/01/15 04:58:46;;;;;;;21.55;5.85;;;;;;;;;;5051682;28;20044;-67
2023/01/15 05:01:14;;;;;;;22.70;5.65;;;;;;;;;;5050229;28;20020;-67
2023/01/15 05:03:40;;;;;;;19.38;5.47;;;;;;;;;;5052261;28;20458;-67
2023/01/15 05:06:06;;;;;;;23.00;5.72;;;;;;;;;;5054470;28;20032;-65
2023/01/15 05:08:32;;;;;;;22.67;5.78;;;;;;;;;;5054678;28;20504;-66
2023/01/15 05:11:02;;;;;;;19.85;5.25;;;;;;;;;;5052979;28;20144;-63
2023/01/15 05:13:31;;;;;;;19.33;5.70;;;;;;;;;;5052246;28;20062;-66
2023/01/15 05:15:57;;;;;;;19.98;5.60;;;;;;;;;;5053712;28;20059;-66
2023/01/15 05:18:23;;;;;;;22.02;6.13;;;;;;;;;;5046532;28;20047;-66
2023/01/15 05:20:50;;;;;;;22.75;6.18;;;;;;;;;;5054497;28;20413;-66
2023/01/15 05:23:16;;;;;;;28.92;6.68;;;;;;;;;;5048398;28;20035;-68
2023/01/15 05:25:42;;;;;;;29.65;6.78;;;;;;;;;;5045278;28;20031;-65
2023/01/15 05:28:08;;;;;;;24.75;6.70;;;;;;;;;;5044870;28;20140;-65
2023/01/15 05:30:35;;;;;;;23.60;6.63;;;;;;;;;;5050348;28;20105;-66
2023/01/15 05:33:01;;;;;;;21.90;5.70;;;;;;;;;;5055160;28;20062;-67
2023/01/15 05:35:27;;;;;;;23.63;6.30;;;;;;;;;;5047494;28;20774;-67
2023/01/15 05:37:53;;;;;;;27.00;6.22;;;;;;;;;;5053264;28;20075;-65
2023/01/15 05:40:19;;;;;;;23.10;6.22;;;;;;;;;;5049605;28;20038;-63
2023/01/15 05:42:46;;;;;;;18.20;5.88;;;;;;;;;;5049696;28;20081;-65
2023/01/15 05:45:12;;;;;;;22.55;6.43;;;;;;;;;;5047076;28;20052;-65
2023/01/15 05:47:38;;;;;;;22.02;6.13;;;;;;;;;;5050565;28;20056;-66
2023/01/15 05:50:04;;;;;;;19.83;6.50;;;;;;;;;;5046671;28;20389;-66
2023/01/15 05:52:30;;;;;;;21.20;5.35;;;;;;;;;;5050363;28;20396;-66
2023/01/15 05:54:56;;;;;;;25.88;6.68;;;;;;;;;;5050091;28;20174;-66
2023/01/15 05:57:23;;;;;;;25.35;6.35;;;;;;;;;;5060229;28;20170;-64
2023/01/15 05:59:49;;;;;;;27.30;6.55;;;;;;;;;;5054247;28;20031;-64
2023/01/15 06:02:15;;;;;;;24.80;6.38;;;;;;;;;;5048970;28;20028;-65
2023/01/15 06:04:41;;;;;;;21.13;6.20;;;;;;;;;;5052982;28;20028;-63
2023/01/15 06:07:08;;;;;;;21.15;6.03;;;;;;;;;;5047501;28;20099;-62
2023/01/15 06:09:34;;;;;;;21.23;6.10;;;;;;;;;;5050085;28;20036;-65
2023/01/15 06:12:00;;;;;;;19.92;6.13;;;;;;;;;;5050856;28;20592;-65
2023/01/15 06:14:26;;;;;;;19.33;6.35;;;;;;;;;;5051464;28;20438;-66
2023/01/15 06:16:52;;;;;;;20.27;5.88;;;;;;;;;;5047639;28;20111;-65
2023/01/15 06:19:18;;;;;;;22.38;5.95;;;;;;;;;;5046596;28;20059;-65
2023/01/15 06:21:45;;;;;;;23.65;6.18;;;;;;;;;;5051475;28;20032;-66
2023/01/15 06:24:11;;;;;;;20.15;6.13;;;;;;;;;;5046808;28;20035;-65
2023/01/15 06:26:38;;;;;;;29.35;6.43;;;;;;;;;;5052625;28;20579;-65
2023/01/15 06:29:04;;;;;;;21.73;6.07;;;;;;;;;;5050793;28;20032;-65
2023/01/15 06:31:31;;;;;;;18.20;5.65;;;;;;;;;;5052349;28;20024;-65
2023/01/15 06:33:57;;;;;;;;;;;;;;;;;;5054881;28;20926;-67
2023/01/15 06:36:24;;;;;;;21.70;5.97;;;;;;;;;;5049180;28;19924;-67
2023/01/15 06:38:50;;;;;;;23.88;6.40;;;;;;;;;;5049698;28;20729;-67
2023/01/15 06:49:34;;;;;;;22.02;6.95;;;;;;;;;;5051757;28;20097;-66
2023/01/15 06:52:01;;;;;;;24.25;6.68;;;;;;;;;;5049019;28;20919;-67
2023/01/15 06:54:27;;;;;;;;;;;;;;;;;;5045829;28;20151;-67
2023/01/15 06:56:53;;;;;;;24.10;7.13;;;;;;;;;;5062976;28;20445;-67
2023/01/15 06:59:20;;;;;;;25.40;7.03;;;;;;;;;;5052153;28;20046;-64
2023/01/15 07:01:46;;;;;;;26.80;7.43;;;;;;;;;;5048288;28;20027;-63
2023/01/15 07:04:12;;;;;;;22.70;6.75;;;;;;;;;;5046393;28;20549;-65
2023/01/15 07:06:38;;;;;;;21.60;7.47;;;;;;;;;;5048981;28;20328;-67
2023/01/15 07:09:04;;;;;;;23.75;7.38;;;;;;;;;;5048294;28;20075;-65
2023/01/15 07:11:30;;;;;;;25.42;8.38;;;;;;;;;;5053094;28;20032;-64
2023/01/15 07:14:06;;;;;;;29.25;8.77;;;;;;;;;;5048883;28;20033;-65
2023/01/15 07:16:33;;;;;;;24.98;8.05;;;;;;;;;;5044700;28;20106;-68
2023/01/15 07:18:59;;;;;;;24.27;7.63;;;;;;;;;;5046364;28;20044;-67
2023/01/15 07:21:26;;;;;;;22.95;7.88;;;;;;;;;;5042484;28;20429;-64
2023/01/15 07:23:53;;;;;;;27.95;7.80;;;;;;;;;;5052869;28;20059;-65
2023/01/15 07:26:19;;;;;;;30.40;7.80;;;;;;;;;;5046724;28;20028;-67
2023/01/15 07:28:45;;;;;;;21.40;8.15;;;;;;;;;;5047384;28;20134;-67
2023/01/15 07:31:11;;;;;;;23.15;7.70;;;;;;;;;;5048861;28;20039;-65
2023/01/15 07:33:38;;;;;;;21.85;7.97;;;;;;;;;;5052063;28;20561;-69
2023/01/15 07:36:04;;;;;;;;;;;;;;;;;;5051067;28;20032;-66
2023/01/15 07:38:30;;;;;;;24.27;7.85;;;;;;;;;;5051843;28;19939;-66
2023/01/15 07:51:56;;;;;;;25.35;7.38;;;;;;;;;;5055714;28;20390;-66
2023/01/15 07:54:22;;;;;;;23.45;7.68;;;;;;;;;;5053190;28;20044;-67
2023/01/15 07:56:49;;;;;;;29.33;8.73;;;;;;;;;;5057705;28;20509;-68
2023/01/15 07:59:15;;;;;;;25.35;7.28;;;;;;;;;;5052942;28;20028;-66
2023/01/15 08:01:41;;;;;;;24.45;8.15;;;;;;;;;;5056435;28;20039;-67
2023/01/15 08:04:08;;;;;;;25.75;7.95;;;;;;;;;;5050718;28;20035;-67
2023/01/15 08:06:35;;;;;;;20.77;7.68;;;;;;;;;;5054811;28;20552;-67
2023/01/15 08:09:01;;;;;;;;;;;;;;;;;;5056262;28;20476;-65
2023/01/15 08:16:56;;;;;;;22.75;8.77;;;;;;;;;;5051643;28;20495;-67
2023/01/15 08:19:24;;;;;;;23.10;8.23;;;;;;;;;;5054693;28;20272;-66
2023/01/15 08:21:50;;;;;;;25.08;9.18;;;;;;;;;;5056148;28;20334;-68
2023/01/15 08:24:17;;;;;;;25.08;9.73;;;;;;;;;;5048179;28;20036;-68
2023/01/15 08:26:42;;;;;;;;;;;;;;;;;;5055739;28;20033;-67
2023/01/15 08:29:09;;;;;;;21.52;8.57;;;;;;;;;;5063981;28;19912;-68
2023/01/15 08:31:35;;;;;;;27.27;10.18;;;;;;;;;;5052888;28;20143;-67
2023/01/15 08:34:02;;;;;;;24.38;10.30;;;;;;;;;;5048062;28;20039;-68
2023/01/15 08:36:28;;;;;;;25.05;10.52;;;;;;;;;;5050811;28;20390;-68
2023/01/15 08:38:55;;;;;;;22.23;9.40;;;;;;;;;;5051970;28;20346;-66
2023/01/15 08:41:21;;;;;;;22.40;9.40;;;;;;;;;;5047650;28;20104;-68
2023/01/15 08:43:47;;;;;;;25.75;9.85;;;;;;;;;;5051525;28;20083;-66
2023/01/15 08:46:13;;;;;;;22.98;9.60;;;;;;;;;;5048190;28;20032;-67
2023/01/15 08:48:39;;;;;;;26.55;10.48;;;;;;;;;;5050680;28;20034;-66
2023/01/15 08:51:06;;;;;;;28.42;12.57;;;;;;;;;;5046613;28;20580;-66
2023/01/15 08:53:33;;;;;;;32.08;15.73;;;;;;;;;;5055057;28;20128;-68
2023/01/15 08:55:59;;;;;;;;;;;;;;;;;;5049348;28;20047;-68
2023/01/15 08:58:27;;;;;;;30.05;15.15;;;;;;;;;;5052211;28;19919;-66
2023/01/15 09:00:53;;;;;;;24.85;12.95;;;;;;;;;;5052504;28;20472;-67
2023/01/15 09:03:20;;;;;;;26.15;12.00;;;;;;;;;;5046424;28;20470;-67
2023/01/15 09:05:46;;;;;;;25.88;10.25;;;;;;;;;;5055086;28;20073;-67
2023/01/15 09:08:12;;;;;;;24.58;11.55;;;;;;;;;;5046797;28;20043;-65
2023/01/15 09:10:38;;;;;;;24.63;10.55;;;;;;;;;;5050694;28;20109;-68
2023/01/15 09:13:04;;;;;;;24.00;10.65;;;;;;;;;;5054393;28;20117;-66
2023/01/15 09:15:32;;;;;;;26.33;10.55;;;;;;;;;;5054037;28;20034;-69
2023/01/15 09:17:58;;;;;;;23.80;11.32;;;;;;;;;;5049277;28;20421;-65
2023/01/15 09:20:24;;;;;;;;;;;;;;;;;;5033848;28;20035;-67
2023/01/15 09:22:51;;;;;;;21.92;9.85;;;;;;;;;;5049346;28;20007;-68
2023/01/15 09:25:18;;;;;;;20.50;9.73;;;;;;;;;;5048887;28;20041;-66
2023/01/15 09:27:44;;;;;;;19.73;8.80;;;;;;;;;;5053314;28;20017;-68
2023/01/15 09:30:10;;;;;;;;;;;;;;;;;;5048419;28;20382;-66
2023/01/15 09:32:36;;;;;;;21.25;8.60;;;;;;;;;;5051890;28;19908;-68
2023/01/15 09:35:03;;;;;;;19.77;8.52;;;;;;;;;;5049085;28;20055;-67
2023/01/15 09:37:29;;;;;;;;;;;;;;;;;;5052465;28;20043;-67
2023/01/15 09:39:55;;;;;;;16.60;7.90;;;;;;;;;;5052352;28;20270;-68
2023/01/15 09:42:21;;;;;;;;;;;;;;;;;;5050249;28;20664;-66
2023/01/15 09:44:47;;;;;;;19.25;8.57;;;;;;;;;;5055485;28;19912;-68
2023/01/15 09:47:22;;;;;;;21.67;8.60;;;;;;;;;;5048671;28;20051;-68
2023/01/15 09:49:51;;;;;;;21.83;8.20;;;;;;;;;;5053886;28;20038;-67
2023/01/15 09:52:29;;;;;;;18.83;7.63;;;;;;;;;;5047717;28;20041;-68
2023/01/15 09:55:11;;;;;;;20.98;8.63;;;;;;;;;;5049154;28;20059;-67
2023/01/15 09:57:37;;;;;;;19.67;8.60;;;;;;;;;;5052919;28;20143;-67
2023/01/15 10:00:04;;;;;;;;;;;;;;;;;;5051952;28;20028;-69
2023/01/15 10:02:39;;;;;;;18.15;8.73;;;;;;;;;;5054801;28;20042;-69
2023/01/15 10:05:17;;;;;;;22.17;9.20;;;;;;;;;;5049065;28;20752;-68
2023/01/15 10:07:53;;;;;;;20.33;8.18;;;;;;;;;;5049849;28;20036;-68
2023/01/15 10:10:22;;;;;;;17.63;7.90;;;;;;;;;;5050447;28;20108;-68
2023/01/15 10:12:50;;;;;;;22.88;8.95;;;;;;;;;;5052614;28;20024;-68
2023/01/15 10:15:20;;;;;;;20.25;8.38;;;;;;;;;;5047327;28;20454;-66
2023/01/15 10:17:48;;;;;;;17.52;7.43;;;;;;;;;;5053541;28;20025;-69
2023/01/15 10:20:26;;;;;;;18.73;7.40;;;;;;;;;;5048609;28;20390;-66
2023/01/15 10:23:07;;;;;;;15.32;6.65;;;;;;;;;;5051690;28;20039;-68
2023/01/15 10:25:38;;;;;;;16.42;6.53;;;;;;;;;;5052334;28;20028;-67
2023/01/15 10:28:13;;;;;;;14.38;5.95;;;;;;;;;;5046244;28;20055;-67
2023/01/15 10:30:44;;;;;;;15.80;6.65;;;;;;;;;;5054541;28;20036;-68
2023/01/15 10:33:29;;;;;;;18.00;6.75;;;;;;;;;;5052082;28;20029;-66
2023/01/15 10:36:03;;;;;;;17.25;5.85;;;;;;;;;;5049708;28;20274;-68
2023/01/15 10:38:35;;;;;;;18.02;6.13;;;;;;;;;;5056768;28;20032;-66
2023/01/15 10:41:27;;;;;;;14.70;5.95;;;;;;;;;;5056880;28;20025;-66
2023/01/15 10:43:57;;;;;;;18.98;5.97;;;;;;;;;;5054854;28;20478;-67
2023/01/15 10:46:32;;;;;;;15.90;5.90;;;;;;;;;;5049403;28;21072;-68
2023/01/15 10:49:05;;;;;;;14.98;5.63;;;;;;;;;;5051369;28;20018;-67
2023/01/15 10:51:44;;;;;;;16.40;5.55;;;;;;;;;;5051470;28;20135;-68
2023/01/15 10:54:10;;;;;;;15.23;5.15;;;;;;;;;;5046496;28;20070;-66
2023/01/15 10:57:00;;;;;;;15.32;5.03;;;;;;;;;;5056313;28;20093;-68
2023/01/15 10:59:58;;;;;;;13.63;4.93;;;;;;;;;;5047665;28;20391;-67
2023/01/15 11:02:32;;;;;;;17.38;5.93;;;;;;;;;;5045765;28;20194;-68
2023/01/15 11:04:58;;;;;;;14.55;5.10;;;;;;;;;;5038049;28;20784;-67
2023/01/15 11:07:24;;;;;;;;;;;;;;;;;;5052478;28;20437;-67
2023/01/15 11:09:50;;;;;;;12.88;4.43;;;;;;;;;;5050948;28;19963;-69
2023/01/15 11:20:22;;;;;;;13.18;4.70;;;;;;;;;;5052365;28;20101;-69
2023/01/15 11:22:48;;;;;;;12.68;3.90;;;;;;;;;;5054184;28;20557;-71
2023/01/15 11:25:24;;;;;;;14.18;5.22;;;;;;;;;;5050738;28;20466;-67
2023/01/15 11:27:50;;;;;;;13.45;4.55;;;;;;;;;;5056540;28;20040;-67
2023/01/15 11:30:28;;;;;;;15.98;4.72;;;;;;;;;;5053329;28;20039;-67
2023/01/15 11:32:55;;;;;;;13.23;4.50;;;;;;;;;;5054132;28;20039;-67
2023/01/15 11:35:21;;;;;;;12.27;4.57;;;;;;;;;;5031612;28;20465;-68
2023/01/15 11:37:48;;;;;;;13.02;4.45;;;;;;;;;;5057119;28;20079;-69
2023/01/15 11:40:18;;;;;;;14.00;4.63;;;;;;;;;;5051456;28;20044;-68
2023/01/15 11:51:11;;;;;;;16.70;5.95;;;;;;;;;;5058062;28;20031;-71
2023/01/15 11:53:45;;;;;;;16.48;6.30;;;;;;;;;;5052117;28;20044;-74
2023/01/15 11:56:13;;;;;;;16.92;6.68;;;;;;;;;;5053669;28;20073;-69
2023/01/15 11:58:41;;;;;;;11.93;4.68;;;;;;;;;;5054970;28;20648;-68
2023/01/15 12:01:08;;;;;;;16.33;7.32;;;;;;;;;;5051487;28;20055;-74
2023/01/15 12:03:35;;;;;;;12.73;5.22;;;;;;;;;;5058688;28;20302;-73
2023/01/15 12:06:04;;;;;;;12.65;4.97;;;;;;;;;;5056154;28;20315;-69
2023/01/15 12:08:36;;;;;;;13.73;5.18;;;;;;;;;;5055131;28;20032;-69
2023/01/15 12:11:03;;;;;;;15.10;4.95;;;;;;;;;;5056146;28;20406;-68
2023/01/15 12:13:34;;;;;;;14.20;4.75;;;;;;;;;;5054392;28;20756;-69
2023/01/15 12:16:01;;;;;;;11.82;4.40;;;;;;;;;;5058926;28;20124;-72
2023/01/15 12:18:30;;;;;;;10.85;3.85;;;;;;;;;;5050275;28;20040;-70
2023/01/15 12:21:04;;;;;;;14.40;4.80;;;;;;;;;;5051539;28;20113;-70
2023/01/15 12:23:30;;;;;;;13.00;4.30;;;;;;;;;;5050264;28;20473;-69
2023/01/15 12:26:08;;;;;;;16.15;5.22;;;;;;;;;;5058532;28;20024;-68
2023/01/15 12:28:36;;;;;;;14.95;5.45;;;;;;;;;;5057941;28;20343;-68
2023/01/15 12:31:09;;;;;;;14.15;5.13;;;;;;;;;;5051552;28;20032;-70
2023/01/15 12:33:44;;;;;;;13.35;5.47;;;;;;;;;;5054522;28;20445;-71
2023/01/15 12:36:16;;;;;;;14.30;5.75;;;;;;;;;;5051187;28;20029;-70
2023/01/15 12:38:55;;;;;;;15.48;6.38;;;;;;;;;;5056577;28;20051;-69
2023/01/15 12:41:21;;;;;;;12.32;5.05;;;;;;;;;;5047884;28;20032;-69
2023/01/15 12:46:53;;;;;;;12.40;4.78;;;;;;;;;;5065096;28;20039;-68
2023/01/15 12:49:27;;;;;;;11.43;4.70;;;;;;;;;;5054176;28;20124;-67
2023/01/15 12:52:01;;;;;;;13.18;4.72;;;;;;;;;;5060663;28;20447;-69
2023/01/15 12:54:35;;;;;;;15.00;4.60;;;;;;;;;;5054549;28;20044;-67
2023/01/15 12:57:24;;;;;;;12.23;5.57;;;;;;;;;;5061079;28;20158;-66
2023/01/15 12:59:53;;;;;;;13.18;5.32;;;;;;;;;;5062608;28;20516;-69
2023/01/15 13:02:19;;;;;;;15.43;4.55;;;;;;;;;;5062403;28;20240;-67
2023/01/15 13:04:47;;;;;;;12.52;5.10;;;;;;;;;;5058014;28;20446;-68
2023/01/15 13:07:18;;;;;;;12.55;4.80;;;;;;;;;;5054899;28;20043;-68
2023/01/15 13:10:06;;;;;;;11.77;4.63;;;;;;;;;;5059089;28;20154;-67
2023/01/15 13:12:33;;;;;;;11.60;5.35;;;;;;;;;;5058775;28;20028;-67
2023/01/15 13:15:00;;;;;;;11.48;4.65;;;;;;;;;;5065388;28;20043;-67
2023/01/15 13:17:45;;;;;;;12.32;5.88;;;;;;;;;;5059423;28;20117;-68
2023/01/15 13:20:25;;;;;;;11.48;3.83;;;;;;;;;;5057007;28;20043;-70
2023/01/15 13:23:10;;;;;;;10.55;4.05;;;;;;;;;;5056379;28;20126;-69
2023/01/15 13:25:56;;;;;;;11.80;4.05;;;;;;;;;;5051778;28;20035;-68
2023/01/15 13:28:43;;;;;;;10.00;3.42;;;;;;;;;;5051399;28;20616;-68
2023/01/15 13:31:18;;;;;;;12.30;5.15;;;;;;;;;;5049502;28;20038;-71
2023/01/15 13:33:50;;;;;;;10.48;4.43;;;;;;;;;;5055872;28;20261;-70
2023/01/15 13:36:18;;;;;;;12.15;4.70;;;;;;;;;;5051873;28;20045;-70
2023/01/15 13:38:50;;;;;;;10.57;4.82;;;;;;;;;;5050815;28;20067;-68
2023/01/15 13:44:15;;;;;;;9.98;3.42;;;;;;;;;;5049152;28;20283;-68
2023/01/15 13:46:42;;;;;;;9.83;3.80;;;;;;;;;;5050431;28;20233;-70
2023/01/15 13:49:19;;;;;;;10.15;4.43;;;;;;;;;;5046862;28;20039;-68
2023/01/15 13:51:48;;;;;;;12.30;5.57;;;;;;;;;;5060639;28;20100;-69
2023/01/15 13:54:15;;;;;;;10.10;4.75;;;;;;;;;;5048686;28;20044;-68
2023/01/15 13:56:43;;;;;;;9.95;4.20;;;;;;;;;;5055582;28;20642;-70
2023/01/15 13:59:31;;;;;;;9.55;3.88;;;;;;;;;;5050274;28;20028;-70
2023/01/15 14:01:57;;;;;;;12.88;4.50;;;;;;;;;;5053530;28;20086;-69
2023/01/15 14:04:35;;;;;;;9.23;3.55;;;;;;;;;;5049297;28;20031;-69
2023/01/15 14:07:01;;;;;;;7.53;2.85;;;;;;;;;;5053792;28;20375;-70
2023/01/15 14:09:30;;;;;;;7.20;2.65;;;;;;;;;;5050057;28;20106;-68
2023/01/15 14:12:12;;;;;;;6.78;2.05;;;;;;;;;;5048185;28;20051;-68
2023/01/15 14:14:47;;;;;;;7.13;2.55;;;;;;;;;;5057195;28;20037;-69
2023/01/15 14:17:31;;;;;;;5.55;2.05;;;;;;;;;;5046059;28;20035;-68
2023/01/15 14:20:04;;;;;;;6.50;2.40;;;;;;;;;;5048323;28;20375;-67
2023/01/15 14:22:54;;;;;;;5.70;2.17;;;;;;;;;;5049118;28;21027;-69
2023/01/15 14:25:20;;;;;;;5.95;2.35;;;;;;;;;;5050595;28;20426;-69
2023/01/15 14:27:49;;;;;;;6.88;2.30;;;;;;;;;;5045242;28;20514;-69
2023/01/15 14:30:44;;;;;;;5.10;1.60;;;;;;;;;;5045203;28;20036;-69
2023/01/15 14:33:29;;;;;;;4.38;1.50;;;;;;;;;;5039679;28;20394;-70
2023/01/15 14:35:55;;;;;;;5.43;2.10;;;;;;;;;;5051681;28;20494;-69
2023/01/15 14:38:24;;;;;;;5.90;1.50;;;;;;;;;;5040740;28;20037;-68
2023/01/15 14:41:00;;;;;;;5.43;1.80;;;;;;;;;;5043161;28;20032;-67
2023/01/15 14:43:28;;;;;;;8.70;2.47;;;;;;;;;;5048116;28;20031;-68
2023/01/15 14:45:55;;;;;;;4.78;1.80;;;;;;;;;;5048634;28;20122;-69
2023/01/15 14:48:21;;;;;;;6.57;2.53;;;;;;;;;;5047858;28;20146;-68
2023/01/15 14:50:48;;;;;;;4.88;1.30;;;;;;;;;;5055762;28;20040;-67
2023/01/15 14:53:23;;;;;;;6.43;1.83;;;;;;;;;;5054151;28;20510;-68
2023/01/15 14:55:56;;;;;;;5.93;2.10;;;;;;;;;;5051935;28;20560;-68
2023/01/15 14:58:28;;;;;;;5.32;1.90;;;;;;;;;;5049678;28;20075;-68
2023/01/15 15:00:57;;;;;;;7.53;2.83;;;;;;;;;;5053955;28;20032;-68
2023/01/15 15:03:30;;;;;;;7.05;3.05;;;;;;;;;;5050163;28;20427;-67
2023/01/15 15:05:56;;;;;;;8.07;2.88;;;;;;;;;;5055868;28;20296;-67
2023/01/15 15:08:26;;;;;;;5.70;2.38;;;;;;;;;;5053040;28;20115;-68
2023/01/15 15:10:53;;;;;;;7.63;3.38;;;;;;;;;;5052352;28;20359;-68
2023/01/15 15:13:29;;;;;;;8.18;3.22;;;;;;;;;;5047883;28;20363;-69
2023/01/15 15:16:07;;;;;;;7.05;3.17;;;;;;;;;;5053537;28;20093;-67
2023/01/15 15:18:39;;;;;;;8.18;2.67;;;;;;;;;;5055784;28;20045;-67
2023/01/15 15:21:09;;;;;;;9.05;3.65;;;;;;;;;;5054251;28;20024;-67
2023/01/15 15:23:54;;;;;;;7.00;2.97;;;;;;;;;;5056189;28;20271;-68
2023/01/15 15:26:28;;;;;;;7.25;3.15;;;;;;;;;;5051542;28;20350;-67
2023/01/15 15:29:00;;;;;;;7.18;2.70;;;;;;;;;;5054194;28;20032;-68
2023/01/15 15:31:27;;;;;;;7.97;2.90;;;;;;;;;;5052825;28;20028;-67
2023/01/15 15:33:54;;;;;;;6.60;2.67;;;;;;;;;;5050307;28;20100;-68
2023/01/15 15:36:21;;;;;;;8.80;3.08;;;;;;;;;;5050059;28;20040;-68
2023/01/15 15:38:54;;;;;;;7.05;3.10;;;;;;;;;;5055600;28;20039;-68
2023/01/15 15:48:40;;;;;;;9.35;4.70;;;;;;;;;;5049514;28;20028;-69
2023/01/15 15:49:39;;;;;;;5.75;2.15;;;;;;;;;;5051753;28;20035;-69